createdAt,value
2024-02-19T00:01:30.627Z,101216.94
2024-02-19T00:04:00.672Z,101208.75
2024-02-19T00:06:28.475Z,101212.03
2024-02-19T00:08:56.821Z,101221.34
2024-02-19T00:11:24.630Z,101227.34
2024-02-19T00:13:53.021Z,101230.13
2024-02-19T00:16:21.430Z,101235.59
2024-02-19T00:18:50.641Z,101233.97
2024-02-19T00:21:19.882Z,101238.34
2024-02-19T00:23:48.303Z,101244.38
2024-02-19T00:26:16.097Z,101234.78
2024-02-19T00:28:44.592Z,101240.81
2024-02-19T00:31:13.337Z,101241.34
2024-02-19T00:33:42.011Z,101250.09
2024-02-19T00:36:10.552Z,101249.28
2024-02-19T00:38:39.942Z,101262.94
2024-02-19T00:41:07.743Z,101264.88
2024-02-19T00:43:36.167Z,101264.88
2024-02-19T00:46:04.448Z,101264.31
2024-02-19T00:48:32.569Z,101256.94
2024-02-19T00:51:00.359Z,101265.16
2024-02-19T00:53:28.728Z,101262.97
2024-02-19T00:55:57.882Z,101263.81
2024-02-19T00:58:26.255Z,101271.19
2024-02-19T01:00:56.747Z,101266.81
2024-02-19T01:03:25.355Z,101277.22
2024-02-19T01:05:53.163Z,101282.13
2024-02-19T01:08:21.670Z,101278.28
2024-02-19T01:10:50.505Z,101276.66
2024-02-19T01:13:20.366Z,101281.03
2024-02-19T01:15:48.113Z,101282.38
2024-02-19T01:18:20.535Z,101285.94
2024-02-19T01:20:48.444Z,101283.19
2024-02-19T01:23:18.068Z,101294.66
2024-02-19T01:25:45.946Z,101300.69
2024-02-19T01:28:14.199Z,101291.94
2024-02-19T01:30:43.521Z,101306.16
2024-02-19T01:33:11.914Z,101309.16
2024-02-19T01:35:40.393Z,101312.47
2024-02-19T01:38:09.174Z,101315.75
2024-02-19T01:40:36.894Z,101326.97
2024-02-19T01:43:07.078Z,101324.53
2024-02-19T01:45:35.712Z,101342.34
2024-02-19T01:48:05.626Z,101340.72
2024-02-19T01:50:34.514Z,101336.88
2024-02-19T01:53:04.784Z,101350.56
2024-02-19T01:55:34.825Z,101360.72
2024-02-19T01:58:03.990Z,101356.03
2024-02-19T02:00:39.323Z,101359.34
2024-02-19T02:03:12.318Z,101379.31
2024-02-19T02:05:40.172Z,101379.88
2024-02-19T02:08:08.865Z,101382.28
2024-02-19T02:10:36.616Z,101389.41
2024-02-19T02:13:05.028Z,101389.69
2024-02-19T02:15:32.922Z,101399.53
2024-02-19T02:18:01.071Z,101396.81
2024-02-19T02:20:32.451Z,101414.00
2024-02-19T02:23:01.098Z,101420.00
2024-02-19T02:25:28.837Z,101422.47
2024-02-19T02:27:58.966Z,101430.66
2024-02-19T02:30:26.768Z,101441.28
2024-02-19T02:32:57.232Z,101430.38
2024-02-19T02:35:25.795Z,101443.22
2024-02-19T02:37:53.860Z,101443.22
2024-02-19T02:40:21.802Z,101453.31
2024-02-19T02:42:50.664Z,101447.84
2024-02-19T02:45:19.934Z,101454.69
2024-02-19T02:47:48.281Z,101459.31
2024-02-19T02:50:16.307Z,101464.50
2024-02-19T02:52:44.257Z,101472.97
2024-02-19T02:55:13.247Z,101467.50
2024-02-19T02:57:41.095Z,101474.84
2024-02-19T03:00:11.550Z,101461.75
2024-02-19T03:02:40.694Z,101476.22
2024-02-19T03:05:09.207Z,101478.13
2024-02-19T03:07:37.789Z,101493.97
2024-02-19T03:10:06.807Z,101496.44
2024-02-19T03:12:35.246Z,101498.88
2024-02-19T03:15:03.053Z,101499.16
2024-02-19T03:17:31.202Z,101498.88
2024-02-19T03:20:00.335Z,101504.34
2024-02-19T03:22:28.723Z,101508.72
2024-02-19T03:24:56.518Z,101516.09
2024-02-19T03:27:24.903Z,101509.53
2024-02-19T03:29:52.936Z,101518.25
2024-02-19T03:32:20.729Z,101513.88
2024-02-19T03:34:49.216Z,101525.34
2024-02-19T03:37:18.909Z,101522.91
2024-02-19T03:39:47.346Z,101534.59
2024-02-19T03:42:15.065Z,101533.75
2024-02-19T03:44:43.174Z,101551.56
2024-02-19T03:47:11.346Z,101546.88
2024-02-19T03:49:39.986Z,101549.34
2024-02-19T03:52:08.189Z,101564.88
2024-02-19T03:54:38.015Z,101563.25
2024-02-19T03:57:06.817Z,101564.06
2024-02-19T03:59:34.607Z,101570.91
2024-02-19T04:02:02.575Z,101571.16
2024-02-19T04:04:30.940Z,101579.41
2024-02-19T04:06:59.254Z,101574.41
2024-02-19T04:09:27.062Z,101586.44
2024-02-19T04:11:56.855Z,101598.72
2024-02-19T04:14:25.980Z,101583.97
2024-02-19T04:16:54.370Z,101595.44
2024-02-19T04:19:24.640Z,101595.75
2024-02-19T04:21:53.141Z,101607.19
2024-02-19T04:24:21.514Z,101597.34
2024-02-19T04:26:49.839Z,101615.84
2024-02-19T04:29:18.923Z,101621.66
2024-02-19T04:31:47.280Z,101612.91
2024-02-19T04:34:15.267Z,101620.56
2024-02-19T04:36:43.556Z,101618.13
2024-02-19T04:39:13.236Z,101623.81
2024-02-19T04:41:40.975Z,101640.47
2024-02-19T04:44:09.334Z,101646.47
2024-02-19T04:46:40.037Z,101639.41
2024-02-19T04:49:07.883Z,101638.59
2024-02-19T04:51:36.346Z,101643.50
2024-02-19T04:54:05.361Z,101648.66
2024-02-19T04:56:33.483Z,101646.47
2024-02-19T04:59:02.063Z,101651.38
2024-02-19T05:01:31.940Z,101661.13
2024-02-19T05:04:01.568Z,101661.19
2024-02-19T05:06:30.356Z,101663.66
2024-02-19T05:08:58.465Z,101663.94
2024-02-19T05:11:26.336Z,101660.66
2024-02-19T05:13:54.422Z,101656.84
2024-02-19T05:16:22.234Z,101663.16
2024-02-19T05:18:51.209Z,101660.72
2024-02-19T05:21:20.327Z,101667.56
2024-02-19T05:23:48.657Z,101668.63
2024-02-19T05:26:25.570Z,101667.81
2024-02-19T05:28:54.047Z,101673.28
2024-02-19T05:31:39.726Z,101674.38
2024-02-19T05:34:09.783Z,101677.66
2024-02-19T05:36:39.122Z,101661.84
2024-02-19T05:39:12.269Z,101679.78
2024-02-19T05:41:40.456Z,101680.63
2024-02-19T05:44:09.524Z,101677.34
2024-02-19T05:46:37.553Z,101675.50
2024-02-19T05:49:05.820Z,101671.06
2024-02-19T05:51:33.654Z,101673.59
2024-02-19T05:54:03.417Z,101680.66
2024-02-19T05:56:31.199Z,101682.78
2024-02-19T05:58:59.580Z,101675.44
2024-02-19T06:01:27.483Z,101684.19
2024-02-19T06:03:55.945Z,101686.97
2024-02-19T06:06:23.740Z,101688.53
2024-02-19T06:08:52.102Z,101694.03
2024-02-19T06:11:22.790Z,101702.53
2024-02-19T06:13:51.620Z,101697.03
2024-02-19T06:16:19.468Z,101699.28
2024-02-19T06:18:48.259Z,101698.19
2024-02-19T06:21:16.093Z,101699.84
2024-02-19T06:23:44.402Z,101707.75
2024-02-19T06:26:13.788Z,101711.06
2024-02-19T06:28:43.513Z,101716.22
2024-02-19T06:31:11.308Z,101724.72
2024-02-19T06:33:40.428Z,101723.66
2024-02-19T06:36:08.669Z,101719.28
2024-02-19T06:38:36.707Z,101729.94
2024-02-19T06:41:04.756Z,101729.16
2024-02-19T06:43:33.230Z,101731.84
2024-02-19T06:46:02.392Z,101734.56
2024-02-19T06:48:30.913Z,101738.44
2024-02-19T06:50:59.322Z,101751.00
2024-02-19T06:53:27.097Z,101747.47
2024-02-19T06:55:55.216Z,101748.56
2024-02-19T06:58:23.844Z,101746.09
2024-02-19T07:00:52.371Z,101755.91
2024-02-19T07:03:21.857Z,101751.59
2024-02-19T07:05:49.757Z,101765.25
2024-02-19T07:08:17.531Z,101764.69
2024-02-19T07:10:45.946Z,101766.88
2024-02-19T07:13:13.961Z,101773.19
2024-02-19T07:15:42.416Z,101764.47
2024-02-19T07:18:11.982Z,101778.38
2024-02-19T07:20:42.923Z,101778.72
2024-02-19T07:23:10.684Z,101787.75
2024-02-19T07:25:38.589Z,101792.41
2024-02-19T07:28:06.653Z,101786.16
2024-02-19T07:30:37.045Z,101788.41
2024-02-19T07:33:05.320Z,101794.06
2024-02-19T07:35:33.443Z,101797.66
2024-02-19T07:38:02.526Z,101795.72
2024-02-19T07:40:34.173Z,101797.38
2024-02-19T07:43:03.696Z,101809.41
2024-02-19T07:45:32.137Z,101809.66
2024-02-19T07:48:01.424Z,101808.56
2024-02-19T07:50:30.073Z,101805.09
2024-02-19T07:52:57.839Z,101809.22
2024-02-19T07:55:27.742Z,101805.69
2024-02-19T07:57:55.911Z,101811.22
2024-02-19T08:00:23.971Z,101822.97
2024-02-19T08:02:51.848Z,101814.22
2024-02-19T08:05:20.198Z,101813.69
2024-02-19T08:07:48.235Z,101817.00
2024-02-19T08:10:16.907Z,101817.31
2024-02-19T08:12:46.937Z,101815.41
2024-02-19T08:15:15.102Z,101828.53
2024-02-19T08:17:42.984Z,101821.97
2024-02-19T08:20:11.757Z,101816.78
2024-02-19T08:22:39.494Z,101830.53
2024-02-19T08:25:08.667Z,101822.16
2024-02-19T08:27:36.400Z,101833.75
2024-02-19T08:30:07.162Z,101836.78
2024-02-19T08:32:34.977Z,101836.81
2024-02-19T08:35:03.186Z,101837.03
2024-02-19T08:37:31.097Z,101835.69
2024-02-19T08:39:59.356Z,101832.38
2024-02-19T08:42:27.199Z,101838.09
2024-02-19T08:44:55.010Z,101849.25
2024-02-19T08:47:24.338Z,101834.53
2024-02-19T08:49:52.316Z,101840.28
2024-02-19T08:52:20.138Z,101833.16
2024-02-19T08:54:48.797Z,101828.50
2024-02-19T08:57:17.470Z,101830.16
2024-02-19T08:59:47.072Z,101844.72
2024-02-19T09:02:15.546Z,101836.78
2024-02-19T09:04:45.350Z,101833.75
2024-02-19T09:07:14.735Z,101838.16
2024-02-19T09:09:45.463Z,101839.28
2024-02-19T09:12:13.956Z,101841.47
2024-02-19T09:14:41.809Z,101843.94
2024-02-19T09:17:09.637Z,101846.38
2024-02-19T09:19:37.538Z,101837.94
2024-02-19T09:22:08.691Z,101843.41
2024-02-19T09:24:36.782Z,101846.38
2024-02-19T09:27:04.911Z,101826.63
2024-02-19T09:29:35.814Z,101837.84
2024-02-19T09:32:04.117Z,101833.22
2024-02-19T09:34:32.350Z,101836.13
2024-02-19T09:37:01.631Z,101843.81
2024-02-19T09:39:31.014Z,101835.75
2024-02-19T09:41:58.894Z,101832.34
2024-02-19T09:44:27.676Z,101827.56
2024-02-19T09:47:02.626Z,101825.91
2024-02-19T09:49:32.193Z,101837.09
2024-02-19T09:52:03.232Z,101839.63
2024-02-19T09:54:32.983Z,101834.75
2024-02-19T09:57:02.028Z,101827.47
2024-02-19T09:59:30.523Z,101811.09
2024-02-19T10:01:58.346Z,101820.72
2024-02-19T10:04:28.626Z,101820.66
2024-02-19T10:07:01.949Z,101827.28
2024-02-19T10:09:29.883Z,101825.31
2024-02-19T10:11:59.433Z,101825.75
2024-02-19T10:14:27.382Z,101824.38
2024-02-19T10:16:56.096Z,101816.50
2024-02-19T10:19:24.247Z,101818.19
2024-02-19T10:21:52.093Z,101810.13
2024-02-19T10:24:20.692Z,101819.00
2024-02-19T10:26:49.249Z,101816.66
2024-02-19T10:29:20.282Z,101816.97
2024-02-19T10:31:48.208Z,101814.47
2024-02-19T10:34:18.123Z,101821.94
2024-02-19T10:36:46.580Z,101821.31
2024-02-19T10:39:15.096Z,101834.34
2024-02-19T10:41:44.124Z,101825.28
2024-02-19T10:44:11.925Z,101820.38
2024-02-19T10:46:41.499Z,101819.34
2024-02-19T10:49:09.702Z,101819.41
2024-02-19T10:51:40.548Z,101825.72
2024-02-19T10:54:08.543Z,101822.00
2024-02-19T10:56:38.151Z,101815.22
2024-02-19T10:59:08.775Z,101823.09
2024-02-19T11:01:46.079Z,101818.13
2024-02-19T11:04:19.816Z,101818.09
2024-02-19T11:06:48.578Z,101823.72
2024-02-19T11:09:27.964Z,101815.06
2024-02-19T11:11:59.406Z,101819.91
2024-02-19T11:14:29.963Z,101822.53
2024-02-19T11:16:59.328Z,101829.00
2024-02-19T11:19:28.201Z,101832.19
2024-02-19T11:22:07.192Z,101829.38
2024-02-19T11:24:35.277Z,101838.59
2024-02-19T11:27:06.230Z,101827.44
2024-02-19T11:29:43.612Z,101832.66
2024-02-19T11:32:21.024Z,101825.06
2024-02-19T11:34:51.885Z,101818.25
2024-02-19T11:37:20.889Z,101822.22
2024-02-19T11:39:49.370Z,101821.06
2024-02-19T11:42:18.063Z,101825.22
2024-02-19T11:44:47.589Z,101818.44
2024-02-19T11:47:17.467Z,101819.94
2024-02-19T11:49:47.516Z,101816.75
2024-02-19T11:52:16.545Z,101818.69
2024-02-19T11:54:45.701Z,101816.19
2024-02-19T11:57:15.200Z,101824.72
2024-02-19T11:59:45.930Z,101816.59
2024-02-19T12:02:13.896Z,101817.63
2024-02-19T12:04:44.120Z,101812.41
2024-02-19T12:07:12.624Z,101807.53
2024-02-19T12:09:40.598Z,101806.31
2024-02-19T12:12:08.402Z,101796.06
2024-02-19T12:14:38.007Z,101802.47
2024-02-19T12:17:07.029Z,101797.81
2024-02-19T12:19:35.480Z,101788.50
2024-02-19T12:22:05.498Z,101793.97
2024-02-19T12:24:34.044Z,101790.78
2024-02-19T12:27:02.558Z,101795.63
2024-02-19T12:29:30.354Z,101789.69
2024-02-19T12:31:58.718Z,101787.94
2024-02-19T12:34:26.611Z,101784.94
2024-02-19T12:36:54.959Z,101785.75
2024-02-19T12:39:26.809Z,101769.97
2024-02-19T12:41:54.717Z,101765.34
2024-02-19T12:44:22.493Z,101773.50
2024-02-19T12:46:51.065Z,101767.06
2024-02-19T12:49:19.749Z,101760.97
2024-02-19T12:51:49.905Z,101762.69
2024-02-19T12:54:19.560Z,101775.25
2024-02-19T12:56:49.386Z,101768.94
2024-02-19T12:59:17.524Z,101773.78
2024-02-19T13:01:45.607Z,101758.94
2024-02-19T13:04:13.617Z,101763.00
2024-02-19T13:06:41.815Z,101751.16
2024-02-19T13:09:12.120Z,101746.66
2024-02-19T13:11:40.279Z,101753.78
2024-02-19T13:14:10.482Z,101745.88
2024-02-19T13:16:40.039Z,101748.13
2024-02-19T13:19:08.195Z,101749.81
2024-02-19T13:21:36.710Z,101738.72
2024-02-19T13:24:04.557Z,101744.91
2024-02-19T13:26:33.397Z,101735.03
2024-02-19T13:29:03.283Z,101731.72
2024-02-19T13:31:33.210Z,101727.44
2024-02-19T13:34:01.256Z,101734.00
2024-02-19T13:36:29.108Z,101734.53
2024-02-19T13:38:57.227Z,101728.56
2024-02-19T13:41:25.709Z,101729.44
2024-02-19T13:43:54.125Z,101724.09
2024-02-19T13:46:22.296Z,101725.88
2024-02-19T13:49:02.025Z,101736.47
2024-02-19T13:51:30.093Z,101720.25
2024-02-19T13:53:57.963Z,101719.03
2024-02-19T13:56:26.945Z,101731.38
2024-02-19T13:58:54.769Z,101720.31
2024-02-19T14:01:22.702Z,101722.97
2024-02-19T14:03:52.770Z,101718.84
2024-02-19T14:06:20.983Z,101724.78
2024-02-19T14:08:48.783Z,101718.81
2024-02-19T14:11:16.593Z,101716.31
2024-02-19T14:13:51.058Z,101724.03
2024-02-19T14:16:23.182Z,101718.91
2024-02-19T14:18:52.466Z,101718.69
2024-02-19T14:21:20.333Z,101709.31
2024-02-19T14:23:48.088Z,101708.28
2024-02-19T14:26:16.220Z,101705.53
2024-02-19T14:28:44.420Z,101704.38
2024-02-19T14:31:12.376Z,101710.63
2024-02-19T14:33:40.708Z,101707.84
2024-02-19T14:36:10.278Z,101702.19
2024-02-19T14:38:39.355Z,101715.03
2024-02-19T14:41:07.317Z,101719.19
2024-02-19T14:43:35.283Z,101715.66
2024-02-19T14:46:05.879Z,101718.69
2024-02-19T14:48:36.859Z,101729.63
2024-02-19T14:51:06.797Z,101723.13
2024-02-19T14:53:36.050Z,101721.00
2024-02-19T14:56:04.184Z,101722.34
2024-02-19T14:58:34.382Z,101720.16
2024-02-19T15:01:02.640Z,101712.63
2024-02-19T15:03:30.704Z,101711.00
2024-02-19T15:05:58.743Z,101715.03
2024-02-19T15:08:27.102Z,101708.03
2024-02-19T15:10:58.697Z,101714.56
2024-02-19T15:13:26.614Z,101707.66
2024-02-19T15:15:54.443Z,101711.97
2024-02-19T15:18:23.970Z,101705.59
2024-02-19T15:20:53.539Z,101708.13
2024-02-19T15:23:22.204Z,101705.03
2024-02-19T15:25:50.148Z,101703.88
2024-02-19T15:28:19.692Z,101692.25
2024-02-19T15:30:50.982Z,101688.44
2024-02-19T15:33:19.127Z,101684.59
2024-02-19T15:35:46.879Z,101693.94
2024-02-19T15:38:14.922Z,101689.63
2024-02-19T15:40:44.939Z,101690.44
2024-02-19T15:43:13.242Z,101689.66
2024-02-19T15:45:44.734Z,101680.19
2024-02-19T15:48:14.942Z,101680.50
2024-02-19T15:50:42.852Z,101685.75
2024-02-19T15:53:24.473Z,101681.91
2024-02-19T15:56:00.562Z,101686.81
2024-02-19T15:58:30.349Z,101686.91
2024-02-19T16:00:59.678Z,101680.38
2024-02-19T16:03:29.419Z,101689.72
2024-02-19T16:06:00.923Z,101682.81
2024-02-19T16:08:39.951Z,101686.03
2024-02-19T16:11:09.305Z,101680.03
2024-02-19T16:13:39.103Z,101688.34
2024-02-19T16:16:11.448Z,101682.03
2024-02-19T16:18:40.670Z,101679.25
2024-02-19T16:21:08.568Z,101682.31
2024-02-19T16:23:37.976Z,101685.34
2024-02-19T16:26:06.842Z,101678.16
2024-02-19T16:28:34.989Z,101672.72
2024-02-19T16:31:04.251Z,101675.53
2024-02-19T16:33:33.686Z,101678.59
2024-02-19T16:36:05.816Z,101673.09
2024-02-19T16:38:38.232Z,101673.16
2024-02-19T16:41:06.963Z,101672.91
2024-02-19T16:43:36.183Z,101662.44
2024-02-19T16:46:05.271Z,101674.28
2024-02-19T16:48:39.768Z,101679.78
2024-02-19T16:51:08.182Z,101673.22
2024-02-19T16:53:37.182Z,101679.03
2024-02-19T16:56:05.550Z,101671.38
2024-02-19T16:58:36.228Z,101684.03
2024-02-19T17:01:06.181Z,101690.97
2024-02-19T17:03:35.669Z,101687.66
2024-02-19T17:06:04.534Z,101697.03
2024-02-19T17:08:31.848Z,101684.94
2024-02-19T17:10:59.856Z,101692.41
2024-02-19T17:13:27.869Z,101691.88
2024-02-19T17:15:56.131Z,101681.44
2024-02-19T17:18:24.039Z,101690.00
2024-02-19T17:20:53.316Z,101683.94
2024-02-19T17:23:21.541Z,101690.00
2024-02-19T17:25:49.322Z,101687.25
2024-02-19T17:28:19.825Z,101693.00
2024-02-19T17:30:48.063Z,101677.38
2024-02-19T17:33:16.367Z,101687.78
2024-02-19T17:35:45.887Z,101681.19
2024-02-19T17:38:15.995Z,101682.84
2024-02-19T17:40:45.250Z,101676.28
2024-02-19T17:43:13.827Z,101683.44
2024-02-19T17:45:42.395Z,101686.13
2024-02-19T17:48:14.189Z,101683.41
2024-02-19T17:50:43.464Z,101685.88
2024-02-19T17:53:11.557Z,101684.50
2024-02-19T17:55:41.971Z,101682.31
2024-02-19T17:58:10.401Z,101686.72
2024-02-19T18:00:41.942Z,101690.56
2024-02-19T18:03:10.118Z,101685.91
2024-02-19T18:05:38.050Z,101688.63
2024-02-19T18:08:06.586Z,101682.63
2024-02-19T18:10:34.548Z,101686.25
2024-02-19T18:13:04.532Z,101678.56
2024-02-19T18:15:32.442Z,101682.44
2024-02-19T18:18:04.544Z,101679.19
2024-02-19T18:20:33.818Z,101688.81
2024-02-19T18:23:04.302Z,101685.81
2024-02-19T18:25:32.253Z,101681.41
2024-02-19T18:28:00.342Z,101684.72
2024-02-19T18:30:29.497Z,101682.47
2024-02-19T18:32:59.268Z,101679.72
2024-02-19T18:35:27.294Z,101682.47
2024-02-19T18:37:55.444Z,101671.50
2024-02-19T18:40:23.670Z,101674.78
2024-02-19T18:42:53.301Z,101676.16
2024-02-19T18:45:21.148Z,101680.00
2024-02-19T18:47:50.500Z,101678.06
2024-02-19T18:50:19.202Z,101674.72
2024-02-19T18:52:47.536Z,101661.03
2024-02-19T18:55:15.920Z,101670.06
2024-02-19T18:57:43.696Z,101664.88
2024-02-19T19:00:11.965Z,101662.94
2024-02-19T19:02:42.481Z,101663.19
2024-02-19T19:05:14.149Z,101657.72
2024-02-19T19:07:43.043Z,101667.31
2024-02-19T19:10:11.377Z,101653.91
2024-02-19T19:12:39.471Z,101656.09
2024-02-19T19:15:08.847Z,101657.00
2024-02-19T19:17:37.174Z,101660.22
2024-02-19T19:20:10.166Z,101653.69
2024-02-19T19:22:40.065Z,101651.75
2024-02-19T19:25:08.704Z,101653.41
2024-02-19T19:27:37.132Z,101653.69
2024-02-19T19:30:05.784Z,101658.91
2024-02-19T19:32:36.367Z,101648.72
2024-02-19T19:35:04.797Z,101660.22
2024-02-19T19:37:32.680Z,101649.03
2024-02-19T19:40:06.781Z,101644.91
2024-02-19T19:42:35.239Z,101641.06
2024-02-19T19:45:03.019Z,101648.19
2024-02-19T19:47:34.592Z,101654.53
2024-02-19T19:50:02.987Z,101646.31
2024-02-19T19:52:35.268Z,101651.50
2024-02-19T19:55:05.403Z,101657.25
2024-02-19T19:57:33.903Z,101649.84
2024-02-19T20:00:01.710Z,101654.75
2024-02-19T20:02:36.948Z,101656.13
2024-02-19T20:05:05.367Z,101653.44
2024-02-19T20:07:33.258Z,101653.16
2024-02-19T20:10:04.312Z,101656.13
2024-02-19T20:12:34.993Z,101656.63
2024-02-19T20:15:03.541Z,101652.22
2024-02-19T20:17:33.431Z,101650.63
2024-02-19T20:20:02.412Z,101657.19
2024-02-19T20:22:31.437Z,101657.22
2024-02-19T20:24:59.364Z,101659.41
2024-02-19T20:27:27.611Z,101659.41
2024-02-19T20:29:56.858Z,101653.66
2024-02-19T20:32:25.057Z,101662.72
2024-02-19T20:34:53.390Z,101660.56
2024-02-19T20:37:24.386Z,101667.66
2024-02-19T20:39:52.526Z,101672.63
2024-02-19T20:42:20.542Z,101674.25
2024-02-19T20:44:48.375Z,101669.88
2024-02-19T20:47:18.990Z,101678.66
2024-02-19T20:49:47.929Z,101682.78
2024-02-19T20:52:22.167Z,101680.34
2024-02-19T20:54:55.277Z,101683.34
2024-02-19T20:57:26.206Z,101682.28
2024-02-19T20:59:54.163Z,101692.41
2024-02-19T21:02:27.219Z,101694.06
2024-02-19T21:04:55.062Z,101694.59
2024-02-19T21:07:24.635Z,101694.31
2024-02-19T21:09:52.557Z,101692.41
2024-02-19T21:12:22.070Z,101691.31
2024-02-19T21:14:50.228Z,101691.56
2024-02-19T21:17:18.103Z,101692.94
2024-02-19T21:19:47.639Z,101699.25
2024-02-19T21:22:15.611Z,101692.13
2024-02-19T21:24:44.800Z,101695.16
2024-02-19T21:27:12.662Z,101696.81
2024-02-19T21:29:41.340Z,101701.19
2024-02-19T21:32:09.078Z,101697.38
2024-02-19T21:34:38.554Z,101695.16
2024-02-19T21:37:08.045Z,101701.75
2024-02-19T21:39:36.182Z,101712.72
2024-02-19T21:42:04.684Z,101705.34
2024-02-19T21:44:33.257Z,101707.56
2024-02-19T21:47:01.268Z,101714.09
2024-02-19T21:49:29.963Z,101707.53
2024-02-19T21:51:57.871Z,101711.91
2024-02-19T21:54:27.359Z,101713.56
2024-02-19T21:56:55.136Z,101716.88
2024-02-19T21:59:23.184Z,101709.47
2024-02-19T22:01:51.343Z,101718.22
2024-02-19T22:04:19.717Z,101706.19
2024-02-19T22:06:47.884Z,101717.13
2024-02-19T22:09:16.046Z,101707.25
2024-02-19T22:11:46.585Z,101717.69
2024-02-19T22:14:15.520Z,101711.09
2024-02-19T22:16:43.823Z,101711.63
2024-02-19T22:19:12.075Z,101714.94
2024-02-19T22:21:39.980Z,101711.38
2024-02-19T22:24:08.081Z,101724.25
2024-02-19T22:26:35.871Z,101711.09
2024-02-19T22:29:05.051Z,101717.13
2024-02-19T22:31:33.668Z,101720.66
2024-02-19T22:34:01.566Z,101720.66
2024-02-19T22:36:29.399Z,101720.94
2024-02-19T22:38:57.133Z,101724.22
2024-02-19T22:41:25.487Z,101712.72
2024-02-19T22:43:53.214Z,101717.69
2024-02-19T22:46:23.095Z,101716.00
2024-02-19T22:48:50.889Z,101719.84
2024-02-19T22:51:19.418Z,101718.75
2024-02-19T22:53:47.152Z,101711.38
2024-02-19T22:56:14.879Z,101712.47
2024-02-19T22:58:42.703Z,101719.31
2024-02-19T23:01:11.223Z,101719.31
2024-02-19T23:03:40.456Z,101714.41
2024-02-19T23:06:08.973Z,101725.63
2024-02-19T23:08:36.735Z,101719.31
2024-02-19T23:11:04.566Z,101719.31
2024-02-19T23:13:32.453Z,101715.78
2024-02-19T23:16:00.888Z,101723.97
2024-02-19T23:18:28.692Z,101715.50
2024-02-19T23:20:57.829Z,101716.03
2024-02-19T23:23:25.659Z,101716.84
2024-02-19T23:25:54.513Z,101708.09
2024-02-19T23:28:23.000Z,101722.88
2024-02-19T23:30:53.058Z,101719.59
2024-02-19T23:33:20.995Z,101724.53
2024-02-19T23:35:49.271Z,101728.63
2024-02-19T23:38:20.402Z,101731.38
2024-02-19T23:40:48.785Z,101739.84
2024-02-19T23:43:16.742Z,101738.47
2024-02-19T23:45:45.191Z,101742.00
2024-02-19T23:48:13.039Z,101747.50
2024-02-19T23:50:41.786Z,101742.59
2024-02-19T23:53:09.640Z,101757.09
2024-02-19T23:55:39.505Z,101755.47
2024-02-19T23:58:07.297Z,101751.59
